createdAt,value
2018-03-03T00:01:54.253Z,116.30
2018-03-03T00:04:23.085Z,147.20
2018-03-03T00:06:51.921Z,146.90
2018-03-03T00:09:20.760Z,136.27
2018-03-03T00:11:49.600Z,159.23
2018-03-03T00:14:18.442Z,129.25
2018-03-03T00:16:47.271Z,133.68
2018-03-03T00:19:16.136Z,143.45
2018-03-03T00:21:44.954Z,126.00
2018-03-03T00:24:13.877Z,130.48
2018-03-03T00:26:42.772Z,138.73
2018-03-03T00:29:11.591Z,133.73
2018-03-03T00:31:40.439Z,121.43
2018-03-03T00:34:09.287Z,153.48
2018-03-03T00:36:38.119Z,120.57
2018-03-03T00:39:06.946Z,138.93
2018-03-03T00:41:35.841Z,145.77
2018-03-03T00:44:04.742Z,126.07
2018-03-03T00:46:33.602Z,157.60
2018-03-03T00:49:02.437Z,135.40
2018-03-03T00:51:31.290Z,132.23
2018-03-03T00:54:00.132Z,138.30
2018-03-03T00:56:28.974Z,154.80
2018-03-03T00:58:57.899Z,141.30
2018-03-03T01:01:26.745Z,121.85
2018-03-03T01:03:55.590Z,114.50
2018-03-03T01:06:24.452Z,108.28
2018-03-03T01:08:53.273Z,127.70
2018-03-03T01:11:22.122Z,128.48
2018-03-03T01:13:50.942Z,126.85
2018-03-03T01:16:19.793Z,142.40
2018-03-03T01:18:48.633Z,117.60
2018-03-03T01:21:17.496Z,143.00
2018-03-03T01:23:46.322Z,154.63
2018-03-03T01:26:15.129Z,131.02
2018-03-03T01:28:44.205Z,138.07
2018-03-03T01:31:13.452Z,129.12
2018-03-03T01:33:42.293Z,131.23
2018-03-03T01:36:11.101Z,134.07
2018-03-03T01:38:39.948Z,127.03
2018-03-03T01:41:08.785Z,127.70
2018-03-03T01:43:37.670Z,125.47
2018-03-03T01:46:06.477Z,135.60
2018-03-03T01:48:35.323Z,138.48
2018-03-03T01:51:04.164Z,144.77
2018-03-03T01:53:33.034Z,111.57
2018-03-03T01:56:01.842Z,105.10
2018-03-03T01:58:30.671Z,117.30
2018-03-03T02:00:59.505Z,127.90
2018-03-03T02:03:28.345Z,112.32
2018-03-03T02:05:57.201Z,108.18
2018-03-03T02:08:26.026Z,137.68
2018-03-03T02:10:54.860Z,125.20
2018-03-03T02:13:23.704Z,102.03
2018-03-03T02:15:52.547Z,97.40
2018-03-03T02:18:21.387Z,101.43
2018-03-03T02:20:50.270Z,106.68
2018-03-03T02:23:19.097Z,97.85
2018-03-03T02:25:47.916Z,132.10
2018-03-03T02:28:16.753Z,109.07
2018-03-03T02:30:45.704Z,108.85
2018-03-03T02:33:14.580Z,85.57
2018-03-03T02:35:43.398Z,95.07
2018-03-03T02:38:12.218Z,86.93
2018-03-03T02:40:41.070Z,83.00
2018-03-03T02:43:09.887Z,88.70
2018-03-03T02:45:38.760Z,72.65
2018-03-03T02:48:07.590Z,91.72
2018-03-03T02:50:36.429Z,67.03
2018-03-03T02:53:05.247Z,73.05
2018-03-03T02:55:34.114Z,77.93
2018-03-03T02:58:02.929Z,70.32
2018-03-03T03:00:31.849Z,64.15
2018-03-03T03:03:00.705Z,63.97
2018-03-03T03:05:29.569Z,73.78
2018-03-03T03:07:58.505Z,77.03
2018-03-03T03:10:27.325Z,77.40
2018-03-03T03:12:56.164Z,72.80
2018-03-03T03:15:25.023Z,79.30
2018-03-03T03:17:53.901Z,79.32
2018-03-03T03:20:22.716Z,61.22
2018-03-03T03:22:51.561Z,74.78
2018-03-03T03:25:20.381Z,48.10
2018-03-03T03:27:49.209Z,44.08
2018-03-03T03:30:18.051Z,53.15
2018-03-03T03:32:46.901Z,61.40
2018-03-03T03:35:15.810Z,72.07
2018-03-03T03:37:44.623Z,86.00
2018-03-03T03:40:13.492Z,276.77
2018-03-03T03:42:42.313Z,231.87
2018-03-03T03:45:11.168Z,78.12
2018-03-03T03:47:39.990Z,77.40
2018-03-03T03:50:08.797Z,87.47
2018-03-03T03:52:37.636Z,59.95
2018-03-03T03:55:06.466Z,63.65
2018-03-03T03:57:35.306Z,65.20
2018-03-03T04:00:04.209Z,61.90
2018-03-03T04:02:33.054Z,81.35
2018-03-03T04:05:01.876Z,88.40
2018-03-03T04:07:30.717Z,67.90
2018-03-03T04:09:59.525Z,109.60
2018-03-03T04:12:28.365Z,98.47
2018-03-03T04:14:57.228Z,82.57
2018-03-03T04:17:26.136Z,85.85
2018-03-03T04:19:54.968Z,98.18
2018-03-03T04:22:23.788Z,82.80
2018-03-03T04:24:52.617Z,84.72
2018-03-03T04:27:21.431Z,73.47
2018-03-03T04:29:50.316Z,79.93
2018-03-03T04:32:19.132Z,94.80
2018-03-03T04:34:47.973Z,94.05
2018-03-03T04:37:16.798Z,100.55
2018-03-03T04:39:45.630Z,89.03
2018-03-03T04:42:14.461Z,76.80
2018-03-03T04:44:43.837Z,80.43
2018-03-03T04:47:12.636Z,71.70
2018-03-03T04:49:41.472Z,74.75
2018-03-03T04:52:10.304Z,78.90
2018-03-03T04:54:39.149Z,104.10
2018-03-03T04:57:07.993Z,90.15
2018-03-03T04:59:42.542Z,94.43
2018-03-03T05:02:12.111Z,83.93
2018-03-03T05:04:59.746Z,71.05
2018-03-03T05:07:29.165Z,66.30
2018-03-03T05:09:57.990Z,87.80
2018-03-03T05:12:29.725Z,79.40
2018-03-03T05:15:17.256Z,87.12
2018-03-03T05:17:51.960Z,62.62
2018-03-03T05:20:35.680Z,53.72
2018-03-03T05:23:10.278Z,107.97
2018-03-03T05:25:44.834Z,101.78
2018-03-03T05:28:17.352Z,112.60
2018-03-03T05:30:50.920Z,99.57
2018-03-03T05:33:34.653Z,97.20
2018-03-03T05:36:09.344Z,98.72
2018-03-03T05:38:57.077Z,105.55
2018-03-03T05:41:31.629Z,74.45
2018-03-03T05:44:06.310Z,74.20
2018-03-03T05:46:39.899Z,101.07
2018-03-03T05:49:14.766Z,93.68
2018-03-03T05:51:49.296Z,84.28
2018-03-03T05:54:23.955Z,91.72
2018-03-03T05:56:58.570Z,89.05
2018-03-03T05:59:28.293Z,87.45
2018-03-03T06:02:12.034Z,99.07
2018-03-03T06:05:01.730Z,85.70
2018-03-03T06:07:33.519Z,88.95
2018-03-03T06:10:02.597Z,102.60
2018-03-03T06:12:31.445Z,88.68
2018-03-03T06:15:00.273Z,81.10
2018-03-03T06:17:29.103Z,83.10
2018-03-03T06:19:57.967Z,91.85
2018-03-03T06:22:26.795Z,92.35
2018-03-03T06:24:55.658Z,85.03
2018-03-03T06:27:24.478Z,101.72
2018-03-03T06:29:53.345Z,87.18
2018-03-03T06:32:22.160Z,83.82
2018-03-03T06:34:51.008Z,90.45
2018-03-03T06:37:19.877Z,84.10
2018-03-03T06:39:48.710Z,94.68
2018-03-03T06:42:17.568Z,84.22
2018-03-03T06:44:46.407Z,91.70
2018-03-03T06:47:15.249Z,96.10
2018-03-03T06:49:44.073Z,108.18
2018-03-03T06:52:12.905Z,80.78
2018-03-03T06:54:41.713Z,85.80
2018-03-03T06:57:10.570Z,72.43
2018-03-03T06:59:39.389Z,66.62
2018-03-03T07:02:08.215Z,61.72
2018-03-03T07:04:37.046Z,67.82
2018-03-03T07:07:05.897Z,70.53
2018-03-03T07:09:34.733Z,64.40
2018-03-03T07:12:03.568Z,69.78
2018-03-03T07:14:38.225Z,93.37
2018-03-03T07:17:07.089Z,84.45
2018-03-03T07:19:35.907Z,85.87
2018-03-03T07:22:04.716Z,75.60
2018-03-03T07:24:33.551Z,82.47
2018-03-03T07:27:02.403Z,69.45
2018-03-03T07:29:31.254Z,73.25
2018-03-03T07:32:00.076Z,69.15
2018-03-03T07:34:28.921Z,72.68
2018-03-03T07:36:57.787Z,76.03
2018-03-03T07:39:26.648Z,61.03
2018-03-03T07:41:55.473Z,55.35
2018-03-03T07:44:24.337Z,69.62
2018-03-03T07:46:53.173Z,79.53
2018-03-03T07:49:21.999Z,70.78
2018-03-03T07:51:50.863Z,60.97
2018-03-03T07:54:19.741Z,50.63
2018-03-03T07:56:50.426Z,71.97
2018-03-03T07:59:19.251Z,43.42
2018-03-03T08:01:48.104Z,49.40
2018-03-03T08:04:16.927Z,50.75
2018-03-03T08:06:45.759Z,53.92
2018-03-03T08:09:14.585Z,60.95
2018-03-03T08:11:43.502Z,48.60
2018-03-03T08:14:12.324Z,51.08
2018-03-03T08:16:41.159Z,87.25
2018-03-03T08:19:10.037Z,64.62
2018-03-03T08:21:38.878Z,73.62
2018-03-03T08:24:07.749Z,73.93
2018-03-03T08:26:36.577Z,64.82
2018-03-03T08:29:05.478Z,78.90
2018-03-03T08:31:34.299Z,76.68
2018-03-03T08:34:03.153Z,63.95
2018-03-03T08:36:31.968Z,64.82
2018-03-03T08:39:00.928Z,75.28
2018-03-03T08:41:29.748Z,70.35
2018-03-03T08:43:58.650Z,65.97
2018-03-03T08:46:27.442Z,65.65
2018-03-03T08:48:56.277Z,53.15
2018-03-03T08:51:25.148Z,94.70
2018-03-03T08:53:54.073Z,58.15
2018-03-03T08:56:22.943Z,68.05
2018-03-03T08:58:51.749Z,68.35
2018-03-03T09:01:20.590Z,70.30
2018-03-03T09:03:49.425Z,70.57
2018-03-03T09:06:18.330Z,79.68
2018-03-03T09:08:47.226Z,79.20
2018-03-03T09:11:16.064Z,74.25
2018-03-03T09:13:44.877Z,85.62
2018-03-03T09:16:13.713Z,74.57
2018-03-03T09:18:42.557Z,71.32
2018-03-03T09:21:11.409Z,70.22
2018-03-03T09:23:40.291Z,76.18
2018-03-03T09:26:09.141Z,74.32
2018-03-03T09:28:37.973Z,76.45
2018-03-03T09:31:06.830Z,63.75
2018-03-03T09:33:35.677Z,72.03
2018-03-03T09:36:04.593Z,88.43
2018-03-03T09:38:33.377Z,71.15
2018-03-03T09:41:02.272Z,74.55
2018-03-03T09:43:31.111Z,65.78
2018-03-03T09:45:59.990Z,76.18
2018-03-03T09:48:28.827Z,72.03
2018-03-03T09:50:57.735Z,85.07
2018-03-03T09:53:26.552Z,70.18
2018-03-03T09:55:55.485Z,76.68
2018-03-03T09:58:24.317Z,69.53
2018-03-03T10:00:53.159Z,78.72
2018-03-03T10:03:22.022Z,75.20
2018-03-03T10:05:50.859Z,70.20
2018-03-03T10:08:19.761Z,62.85
2018-03-03T10:10:48.592Z,71.45
2018-03-03T10:13:17.449Z,76.40
2018-03-03T10:15:46.273Z,67.95
2018-03-03T10:18:15.144Z,64.07
2018-03-03T10:20:44.023Z,67.12
2018-03-03T10:23:12.829Z,67.97
2018-03-03T10:25:41.841Z,58.95
2018-03-03T10:28:10.674Z,66.25
2018-03-03T10:30:39.532Z,61.50
2018-03-03T10:33:08.403Z,59.03
2018-03-03T10:35:37.231Z,64.87
2018-03-03T10:38:06.053Z,62.78
2018-03-03T10:40:34.902Z,59.22
2018-03-03T10:43:03.758Z,61.90
2018-03-03T10:45:32.639Z,69.28
2018-03-03T10:48:01.469Z,68.53
2018-03-03T10:50:30.336Z,67.28
2018-03-03T10:52:59.169Z,61.78
2018-03-03T10:55:28.069Z,64.47
2018-03-03T10:57:56.926Z,77.18
2018-03-03T11:00:27.445Z,81.25
2018-03-03T11:02:56.280Z,70.62
2018-03-03T11:05:25.126Z,72.12
2018-03-03T11:07:53.967Z,83.93
2018-03-03T11:10:22.799Z,82.05
2018-03-03T11:12:51.660Z,85.32
2018-03-03T11:15:20.491Z,86.78
2018-03-03T11:17:49.356Z,80.62
2018-03-03T11:20:18.181Z,78.72
2018-03-03T11:22:47.002Z,84.03
2018-03-03T11:25:15.873Z,85.47
2018-03-03T11:27:44.726Z,85.28
2018-03-03T11:30:13.605Z,90.20
2018-03-03T11:32:42.446Z,86.90
2018-03-03T11:35:11.326Z,79.03
2018-03-03T11:37:40.182Z,82.50
2018-03-03T11:40:09.036Z,82.65
2018-03-03T11:42:37.855Z,81.12
2018-03-03T11:45:06.736Z,88.37
2018-03-03T11:47:35.565Z,82.40
2018-03-03T11:50:04.438Z,71.57
2018-03-03T11:52:33.259Z,69.40
2018-03-03T11:55:02.289Z,74.47
2018-03-03T11:57:31.130Z,88.50
2018-03-03T11:59:59.963Z,77.05
2018-03-03T12:02:28.805Z,70.18
2018-03-03T12:04:57.614Z,64.80
2018-03-03T12:07:26.500Z,69.53
2018-03-03T12:09:55.881Z,71.68
2018-03-03T12:12:24.747Z,69.47
2018-03-03T12:14:53.595Z,83.35
2018-03-03T12:17:22.462Z,73.70
2018-03-03T12:19:51.281Z,83.25
2018-03-03T12:22:20.172Z,71.53
2018-03-03T12:24:49.018Z,71.18
2018-03-03T12:27:17.874Z,63.17
2018-03-03T12:29:46.721Z,64.07
2018-03-03T12:32:15.587Z,70.30
2018-03-03T12:34:44.447Z,76.03
2018-03-03T12:37:13.424Z,68.03
2018-03-03T12:39:42.305Z,68.20
2018-03-03T12:42:11.144Z,75.53
2018-03-03T12:44:39.967Z,69.30
2018-03-03T12:47:08.854Z,70.43
2018-03-03T12:49:37.664Z,74.23
2018-03-03T12:52:06.568Z,77.25
2018-03-03T12:54:35.405Z,61.90
2018-03-03T12:57:04.279Z,76.53
2018-03-03T12:59:33.129Z,73.65
2018-03-03T13:59:32.481Z,44.43
2018-03-03T14:07:38.038Z,67.27
2018-03-03T14:10:05.571Z,64.47
2018-03-03T14:12:33.054Z,63.63
2018-03-03T14:15:00.552Z,67.83
2018-03-03T14:17:28.123Z,64.53
2018-03-03T14:19:55.620Z,65.47
2018-03-03T14:22:23.247Z,60.30
2018-03-03T14:24:51.538Z,73.57
2018-03-03T14:27:19.778Z,67.63
2018-03-03T14:29:47.265Z,71.17
2018-03-03T14:32:14.774Z,71.60
2018-03-03T14:34:42.249Z,62.38
2018-03-03T14:37:09.749Z,66.62
2018-03-03T14:39:37.251Z,49.97
2018-03-03T14:42:04.728Z,66.78
2018-03-03T14:44:32.220Z,67.35
2018-03-03T14:46:59.695Z,55.70
2018-03-03T14:49:27.203Z,62.65
2018-03-03T14:51:54.720Z,66.28
2018-03-03T14:54:22.254Z,74.55
2018-03-03T14:56:50.491Z,75.03
2018-03-03T14:59:17.989Z,71.60
2018-03-03T15:01:45.535Z,72.80
2018-03-03T15:04:13.783Z,70.68
2018-03-03T15:06:41.293Z,78.50
2018-03-03T15:09:08.762Z,77.45
2018-03-03T15:11:36.273Z,63.87
2018-03-03T15:14:04.531Z,57.05
2018-03-03T15:16:32.791Z,57.75
2018-03-03T15:19:01.059Z,60.00
2018-03-03T15:21:28.552Z,57.95
2018-03-03T15:23:56.018Z,80.20
2018-03-03T15:26:24.316Z,75.12
2018-03-03T15:28:51.837Z,83.93
2018-03-03T15:31:19.329Z,62.10
2018-03-03T15:33:47.596Z,76.33
2018-03-03T15:36:15.862Z,66.68
2018-03-03T15:38:43.371Z,62.15
2018-03-03T15:41:10.861Z,56.50
2018-03-03T15:43:38.384Z,72.30
2018-03-03T15:46:05.853Z,75.70
2018-03-03T15:48:33.359Z,56.37
2018-03-03T15:51:00.875Z,69.22
2018-03-03T15:53:28.355Z,79.05
2018-03-03T15:55:55.849Z,76.65
2018-03-03T15:58:23.360Z,52.58
2018-03-03T16:00:50.879Z,77.90
2018-03-03T16:03:18.427Z,75.55
2018-03-03T16:05:46.683Z,66.40
2018-03-03T16:08:14.240Z,70.35
2018-03-03T16:10:41.726Z,76.12
2018-03-03T16:13:09.239Z,84.85
2018-03-03T16:15:36.761Z,69.47
2018-03-03T16:18:04.347Z,76.05
2018-03-03T16:20:31.810Z,73.18
2018-03-03T16:22:59.308Z,78.72
2018-03-03T16:25:27.551Z,64.50
2018-03-03T16:27:55.062Z,69.07
2018-03-03T16:30:22.553Z,76.95
2018-03-03T16:32:50.061Z,80.62
2018-03-03T16:35:17.549Z,79.87
2018-03-03T16:37:45.160Z,77.53
2018-03-03T16:40:12.701Z,84.22
2018-03-03T16:42:40.186Z,89.65
2018-03-03T16:45:08.463Z,88.00
2018-03-03T16:47:36.703Z,93.70
2018-03-03T16:50:04.214Z,85.20
2018-03-03T16:52:32.436Z,82.45
2018-03-03T16:54:59.930Z,76.35
2018-03-03T16:57:28.212Z,76.57
2018-03-03T16:59:55.701Z,79.53
2018-03-03T17:02:23.197Z,88.68
2018-03-03T17:04:50.695Z,82.93
2018-03-03T17:07:18.954Z,84.90
2018-03-03T17:09:47.296Z,84.97
2018-03-03T17:12:14.771Z,94.18
2018-03-03T17:14:42.275Z,64.97
2018-03-03T17:17:09.806Z,82.95
2018-03-03T17:19:37.283Z,80.53
2018-03-03T17:22:04.811Z,70.30
2018-03-03T17:24:32.310Z,96.32
2018-03-03T17:26:59.825Z,92.00
2018-03-03T17:29:27.283Z,55.85
2018-03-03T17:31:54.801Z,72.53
2018-03-03T17:34:22.274Z,89.37
2018-03-03T17:36:49.750Z,87.75
2018-03-03T17:39:17.281Z,90.12
2018-03-03T17:41:44.747Z,83.30
2018-03-03T17:44:12.326Z,75.90
2018-03-03T17:46:39.807Z,56.50
2018-03-03T17:49:08.079Z,75.05
2018-03-03T17:51:36.330Z,85.00
2018-03-03T17:54:03.876Z,98.68
2018-03-03T17:56:31.353Z,95.47
2018-03-03T17:58:58.847Z,98.32
2018-03-03T18:01:26.386Z,68.62
2018-03-03T18:03:54.662Z,61.90
2018-03-03T18:06:22.283Z,74.35
2018-03-03T18:08:49.751Z,78.57
2018-03-03T18:11:17.264Z,91.10
2018-03-03T18:13:45.512Z,72.55
2018-03-03T18:16:12.994Z,92.53
2018-03-03T18:18:41.280Z,64.90
2018-03-03T18:21:08.782Z,94.18
2018-03-03T18:23:36.285Z,83.95
2018-03-03T18:26:04.514Z,88.37
2018-03-03T18:28:32.072Z,128.48
2018-03-03T18:30:59.560Z,115.47
2018-03-03T18:33:29.881Z,98.50
2018-03-03T18:35:57.444Z,105.43
2018-03-03T18:38:24.949Z,94.57
2018-03-03T18:40:52.417Z,100.78
2018-03-03T18:43:19.961Z,76.15
2018-03-03T18:45:47.456Z,95.93
2018-03-03T18:48:14.944Z,206.48
2018-03-03T18:50:43.209Z,181.00
2018-03-03T18:53:10.700Z,168.13
2018-03-03T18:55:38.204Z,99.87
2018-03-03T18:58:05.699Z,112.35
2018-03-03T19:00:34.654Z,98.25
2018-03-03T19:03:02.161Z,88.40
2018-03-03T19:05:30.489Z,89.95
2018-03-03T19:07:57.987Z,78.55
2018-03-03T19:10:26.392Z,91.05
2018-03-03T19:12:53.874Z,120.87
2018-03-03T19:15:21.382Z,100.43
2018-03-03T19:17:48.944Z,102.95
2018-03-03T19:20:16.487Z,100.90
2018-03-03T19:22:44.088Z,98.53
2018-03-03T19:25:11.600Z,96.18
2018-03-03T19:27:39.148Z,74.90
2018-03-03T19:30:06.627Z,127.53
2018-03-03T19:32:34.894Z,67.60
2018-03-03T19:35:02.418Z,83.50
2018-03-03T19:37:29.922Z,97.57
2018-03-03T19:39:58.213Z,92.62
2018-03-03T19:42:25.721Z,109.95
2018-03-03T19:44:53.226Z,78.40
2018-03-03T19:47:21.469Z,69.37
2018-03-03T19:49:49.059Z,106.12
2018-03-03T19:52:17.313Z,85.32
2018-03-03T19:54:44.833Z,83.85
2018-03-03T19:57:12.650Z,84.05
2018-03-03T19:59:40.146Z,116.85
2018-03-03T20:02:07.640Z,102.57
2018-03-03T20:04:35.159Z,107.55
2018-03-03T20:07:02.721Z,140.75
2018-03-03T20:09:30.236Z,91.00
2018-03-03T20:11:57.738Z,100.70
2018-03-03T20:14:25.269Z,83.18
2018-03-03T20:16:53.574Z,140.82
2018-03-03T20:19:21.094Z,175.98
2018-03-03T20:21:48.598Z,116.25
2018-03-03T20:24:16.138Z,129.23
2018-03-03T20:26:43.610Z,110.60
2018-03-03T20:29:11.239Z,105.32
2018-03-03T20:31:39.537Z,133.80
2018-03-03T20:34:07.066Z,121.93
2018-03-03T20:36:35.379Z,174.07
2018-03-03T20:39:03.661Z,123.38
2018-03-03T20:41:31.140Z,144.05
2018-03-03T20:43:58.677Z,168.82
2018-03-03T20:46:26.166Z,166.57
2018-03-03T20:48:54.085Z,131.65
2018-03-03T20:51:22.400Z,147.52
2018-03-03T20:53:49.881Z,124.78
2018-03-03T20:56:17.843Z,122.22
2018-03-03T20:58:45.349Z,135.60
2018-03-03T21:01:12.884Z,136.73
2018-03-03T21:03:40.374Z,120.18
2018-03-03T21:06:07.898Z,108.75
2018-03-03T21:08:36.149Z,110.65
2018-03-03T21:11:03.730Z,119.30
2018-03-03T21:13:31.248Z,109.87
2018-03-03T21:15:58.734Z,103.80
2018-03-03T21:18:26.244Z,124.87
2018-03-03T21:20:53.860Z,126.68
2018-03-03T21:23:21.433Z,108.43
2018-03-03T21:25:49.753Z,112.80
2018-03-03T21:28:17.334Z,105.43
2018-03-03T21:30:44.905Z,111.97
2018-03-03T21:33:12.486Z,109.87
2018-03-03T21:35:40.003Z,110.88
2018-03-03T21:38:07.565Z,111.65
2018-03-03T21:40:35.844Z,119.37
2018-03-03T21:43:03.362Z,123.13
2018-03-03T21:45:31.624Z,121.65
2018-03-03T21:47:59.293Z,105.43
2018-03-03T21:50:27.634Z,123.85
2018-03-03T21:52:55.120Z,91.40
2018-03-03T21:55:23.405Z,125.82
2018-03-03T21:57:51.689Z,115.88
2018-03-03T22:00:19.957Z,111.50
2018-03-03T22:02:48.264Z,98.15
2018-03-03T22:05:15.881Z,102.93
2018-03-03T22:07:43.378Z,113.22
2018-03-03T22:10:10.973Z,98.12
2018-03-03T22:12:39.167Z,102.18
2018-03-03T22:15:06.646Z,95.53
2018-03-03T22:17:34.944Z,94.97
2018-03-03T22:20:02.447Z,106.32
2018-03-03T22:22:29.933Z,102.90
2018-03-03T22:24:57.437Z,96.50
2018-03-03T22:27:24.935Z,81.53
2018-03-03T22:29:52.456Z,78.28
2018-03-03T22:32:19.977Z,73.00
2018-03-03T22:34:48.223Z,90.43
2018-03-03T22:37:15.689Z,81.53
2018-03-03T22:39:43.198Z,83.72
2018-03-03T22:42:10.655Z,94.82
2018-03-03T22:44:38.181Z,71.68
2018-03-03T22:47:06.429Z,74.15
2018-03-03T22:49:33.914Z,86.85
2018-03-03T22:52:02.168Z,75.18
2018-03-03T22:54:29.666Z,74.82
2018-03-03T22:56:57.161Z,70.82
2018-03-03T22:59:24.846Z,66.18
2018-03-03T23:01:52.315Z,64.30
2018-03-03T23:04:19.799Z,65.22
2018-03-03T23:06:47.292Z,69.28
2018-03-03T23:09:14.818Z,88.07
2018-03-03T23:11:42.343Z,79.50
2018-03-03T23:14:09.870Z,61.50
2018-03-03T23:16:38.079Z,68.25
2018-03-03T23:19:05.570Z,67.65
2018-03-03T23:21:33.077Z,72.57
2018-03-03T23:24:00.557Z,53.65
2018-03-03T23:26:28.069Z,58.13
2018-03-03T23:28:55.552Z,66.30
2018-03-03T23:31:23.043Z,60.78
2018-03-03T23:33:51.290Z,56.22
2018-03-03T23:36:18.827Z,59.15
2018-03-03T23:38:46.344Z,50.42
2018-03-03T23:41:14.581Z,54.90
2018-03-03T23:43:42.046Z,55.80
2018-03-03T23:46:09.540Z,64.53
2018-03-03T23:48:37.018Z,61.65
2018-03-03T23:51:04.518Z,70.03
2018-03-03T23:53:32.017Z,62.40
2018-03-03T23:56:00.290Z,65.80
2018-03-03T23:58:27.821Z,62.55
